Time;durP1;ratioP1;P1;durP2;ratioP2;P2;SDS_P1;SDS_P2;PMS_P1;PMS_P2;Temp;Humidity;BMP_temperature;BMP_pressure;BME280_temperature;BME280_humidity;BME280_pressure;Samples;Min_cycle;Max_cycle;Signal;HPM_P1;HPM_P2
2022/03/02 00:01:29;;;;;;;;;14.80;14.20;;;;;;;;5214700;28;8777;-79
2022/03/02 00:04:01;;;;;;;;;10.80;10.80;;;;;;;;5214489;28;8785;-77
2022/03/02 00:06:32;;;;;;;;;15.00;14.60;;;;;;;;5248798;28;8861;-79
2022/03/02 00:09:03;;;;;;;;;9.60;9.20;;;;;;;;5247674;28;8816;-80
2022/03/02 00:11:35;;;;;;;;;12.00;12.00;;;;;;;;5231283;28;8869;-80
2022/03/02 00:14:06;;;;;;;;;8.60;8.60;;;;;;;;5184967;28;8783;-81
2022/03/02 00:16:37;;;;;;;;;1.40;1.40;;;;;;;;5227181;28;8811;-82
2022/03/02 00:19:09;;;;;;;;;6.80;6.60;;;;;;;;5227467;28;8937;-79
2022/03/02 00:21:40;;;;;;;;;8.20;8.20;;;;;;;;5209972;28;8797;-80
2022/03/02 00:24:30;;;;;;;;;12.60;12.60;;;;;;;;5210239;28;8790;-79
2022/03/02 00:27:02;;;;;;;;;14.60;13.60;;;;;;;;5193709;28;8797;-79
2022/03/02 00:29:34;;;;;;;;;11.40;11.40;;;;;;;;5193619;28;8929;-78
2022/03/02 00:32:05;;;;;;;;;6.00;6.00;;;;;;;;5194962;28;8786;-76
2022/03/02 00:34:37;;;;;;;;;8.60;8.60;;;;;;;;5247432;28;9538;-76
2022/03/02 00:37:26;;;;;;;;;11.20;11.20;;;;;;;;5216277;28;8785;-77
2022/03/02 00:39:58;;;;;;;;;9.20;9.20;;;;;;;;5230438;28;8821;-80
2022/03/02 00:42:30;;;;;;;;;8.60;8.60;;;;;;;;5213766;28;8789;-78
2022/03/02 00:45:01;;;;;;;;;7.80;7.80;;;;;;;;5197595;28;8788;-80
2022/03/02 00:47:34;;;;;;;;;8.60;7.40;;;;;;;;5230345;28;8793;-81
2022/03/02 00:50:06;;;;;;;;;6.40;6.20;;;;;;;;5213671;28;8890;-82
2022/03/02 00:52:37;;;;;;;;;8.40;8.40;;;;;;;;5234038;28;8803;-83
2022/03/02 00:55:27;;;;;;;;;7.60;7.60;;;;;;;;5209962;28;9506;-82
2022/03/02 00:57:58;;;;;;;;;15.00;15.00;;;;;;;;5193257;28;8815;-84
2022/03/02 01:00:29;;;;;;;;;12.00;12.00;;;;;;;;5213183;28;8829;-83
2022/03/02 01:03:01;;;;;;;;;10.00;10.00;;;;;;;;5202602;28;8762;-81
2022/03/02 01:05:51;;;;;;;;;12.60;11.60;;;;;;;;5203622;28;8824;-81
2022/03/02 01:08:22;;;;;;;;;11.80;11.40;;;;;;;;5195876;28;8807;-82
2022/03/02 01:10:53;;;;;;;;;9.00;9.00;;;;;;;;5197410;28;8874;-78
2022/03/02 01:13:24;;;;;;;;;17.40;15.00;;;;;;;;5197111;28;8824;-78
2022/03/02 01:15:56;;;;;;;;;13.60;13.60;;;;;;;;5213166;28;8796;-78
2022/03/02 01:18:27;;;;;;;;;11.20;10.00;;;;;;;;5229870;28;8800;-78
2022/03/02 01:20:59;;;;;;;;;9.60;9.60;;;;;;;;5247714;28;8927;-79
2022/03/02 01:23:31;;;;;;;;;9.40;9.40;;;;;;;;5213139;28;8781;-79
2022/03/02 01:26:21;;;;;;;;;12.60;12.60;;;;;;;;5216036;28;8878;-79
2022/03/02 01:28:55;;;;;;;;;14.20;14.20;;;;;;;;5196506;28;8816;-79
2022/03/02 01:31:27;;;;;;;;;10.40;10.40;;;;;;;;5214321;28;8818;-82
2022/03/02 01:33:59;;;;;;;;;4.80;4.80;;;;;;;;5192562;28;8890;-82
2022/03/02 01:36:30;;;;;;;;;14.80;14.80;;;;;;;;5208809;28;8799;-82
2022/03/02 01:39:01;;;;;;;;;14.40;13.60;;;;;;;;5208964;28;8821;-78
2022/03/02 01:41:33;;;;;;;;;9.40;9.40;;;;;;;;5192182;28;8791;-78
2022/03/02 01:44:05;;;;;;;;;9.60;9.60;;;;;;;;5208809;28;9563;-80
2022/03/02 01:46:36;;;;;;;;;6.20;6.20;;;;;;;;5226419;28;8857;-77
2022/03/02 01:49:25;;;;;;;;;9.00;9.00;;;;;;;;5197842;28;8858;-78
2022/03/02 01:51:56;;;;;;;;;7.40;7.40;;;;;;;;5229240;28;8898;-77
2022/03/02 01:54:46;;;;;;;;;12.20;11.80;;;;;;;;5231892;28;8772;-77
2022/03/02 01:57:17;;;;;;;;;15.80;15.80;;;;;;;;5228884;28;8793;-78
2022/03/02 01:59:49;;;;;;;;;9.60;9.60;;;;;;;;5228970;28;8803;-78
2022/03/02 02:02:20;;;;;;;;;17.80;17.80;;;;;;;;5228858;28;8773;-76
2022/03/02 02:04:53;;;;;;;;;18.20;16.40;;;;;;;;5229007;28;9673;-74
2022/03/02 02:07:26;;;;;;;;;21.60;21.60;;;;;;;;5212263;28;8905;-75
2022/03/02 02:10:16;;;;;;;;;31.80;29.60;;;;;;;;5214460;28;8803;-74
2022/03/02 02:12:47;;;;;;;;;40.00;38.00;;;;;;;;5191648;28;8934;-75
2022/03/02 02:15:18;;;;;;;;;45.00;42.40;;;;;;;;5225779;28;8803;-74
2022/03/02 02:17:50;;;;;;;;;51.40;47.60;;;;;;;;5207950;28;8771;-75
2022/03/02 02:20:23;;;;;;;;;51.60;45.20;;;;;;;;5191463;28;8774;-80
2022/03/02 02:22:55;;;;;;;;;49.00;44.20;;;;;;;;5191401;28;8811;-80
2022/03/02 02:25:26;;;;;;;;;35.20;35.20;;;;;;;;5224701;28;8774;-81
2022/03/02 02:27:57;;;;;;;;;37.40;36.60;;;;;;;;5198325;28;8817;-82
2022/03/02 02:30:30;;;;;;;;;24.60;24.00;;;;;;;;5244326;28;8770;-77
2022/03/02 02:33:01;;;;;;;;;36.60;34.80;;;;;;;;5245083;28;8781;-70
2022/03/02 02:35:51;;;;;;;;;259.00;188.25;;;;;;;;5231290;28;8788;-76
2022/03/02 02:38:23;;;;;;;;;45.60;44.00;;;;;;;;5228324;28;11117;-77
2022/03/02 02:40:55;;;;;;;;;35.80;34.80;;;;;;;;5195400;28;8800;-75
2022/03/02 02:43:26;;;;;;;;;34.80;30.60;;;;;;;;5197901;28;8785;-77
2022/03/02 02:45:57;;;;;;;;;28.00;28.00;;;;;;;;5215938;28;8775;-79
2022/03/02 02:48:28;;;;;;;;;22.80;22.80;;;;;;;;5215650;28;8802;-76
2022/03/02 02:51:00;;;;;;;;;18.80;18.40;;;;;;;;5232691;28;8767;-80
2022/03/02 02:53:31;;;;;;;;;18.60;18.60;;;;;;;;5215779;28;8755;-79
2022/03/02 02:56:03;;;;;;;;;14.60;13.80;;;;;;;;5195582;28;8791;-79
2022/03/02 02:58:34;;;;;;;;;13.20;13.20;;;;;;;;5214023;28;8883;-78
2022/03/02 03:01:05;;;;;;;;;19.80;19.80;;;;;;;;5213991;28;8801;-78
2022/03/02 03:03:37;;;;;;;;;29.60;29.60;;;;;;;;5238148;28;8789;-76
2022/03/02 03:06:08;;;;;;;;;39.40;34.80;;;;;;;;5236635;28;8869;-79
2022/03/02 03:08:39;;;;;;;;;42.80;40.20;;;;;;;;5211116;28;8814;-80
2022/03/02 03:11:10;;;;;;;;;29.60;28.40;;;;;;;;5211479;28;8779;-79
2022/03/02 03:13:43;;;;;;;;;24.40;24.40;;;;;;;;5195119;28;9537;-80
2022/03/02 03:16:14;;;;;;;;;26.40;26.20;;;;;;;;5234659;28;9613;-80
2022/03/02 03:18:45;;;;;;;;;20.80;20.80;;;;;;;;5225511;28;8823;-79
2022/03/02 03:21:17;;;;;;;;;14.60;14.20;;;;;;;;5221669;28;8774;-80
2022/03/02 03:23:48;;;;;;;;;21.60;20.20;;;;;;;;5248234;28;8802;-80
2022/03/02 03:26:19;;;;;;;;;15.80;15.80;;;;;;;;5218397;28;8801;-79
2022/03/02 03:28:50;;;;;;;;;19.50;18.75;;;;;;;;5198757;28;9543;-77
2022/03/02 03:31:22;;;;;;;;;30.80;26.40;;;;;;;;5248354;28;11485;-77
2022/03/02 03:33:53;;;;;;;;;40.00;35.40;;;;;;;;5215211;28;8800;-77
2022/03/02 03:36:24;;;;;;;;;27.60;27.60;;;;;;;;5248509;28;9574;-75
2022/03/02 03:38:55;;;;;;;;;48.60;44.60;;;;;;;;5214976;28;8780;-78
2022/03/02 03:41:26;;;;;;;;;27.40;26.40;;;;;;;;5198359;28;8777;-74
2022/03/02 03:43:57;;;;;;;;;33.60;29.80;;;;;;;;5249449;28;8785;-74
2022/03/02 03:46:28;;;;;;;;;29.00;29.00;;;;;;;;5234452;28;8891;-76
2022/03/02 03:48:59;;;;;;;;;32.25;30.25;;;;;;;;5210973;28;8827;-76
2022/03/02 03:51:31;;;;;;;;;30.00;22.00;;;;;;;;5194373;28;8871;-78
2022/03/02 03:54:02;;;;;;;;;21.60;21.20;;;;;;;;5210453;28;8872;-78
2022/03/02 03:56:33;;;;;;;;;35.40;34.60;;;;;;;;5228769;28;9556;-78
2022/03/02 03:59:05;;;;;;;;;54.40;48.80;;;;;;;;5211598;28;8805;-78
2022/03/02 04:01:36;;;;;;;;;39.40;38.20;;;;;;;;5195368;28;8793;-77
2022/03/02 04:04:07;;;;;;;;;43.60;36.60;;;;;;;;5212320;28;8789;-78
2022/03/02 04:06:39;;;;;;;;;50.80;47.00;;;;;;;;5215241;28;8922;-77
2022/03/02 04:09:28;;;;;;;;;45.20;40.40;;;;;;;;5233809;28;8824;-78
2022/03/02 04:11:59;;;;;;;;;45.50;43.75;;;;;;;;5247611;28;8858;-78
2022/03/02 04:14:30;;;;;;;;;32.20;30.60;;;;;;;;5248498;28;9488;-78
2022/03/02 04:17:01;;;;;;;;;41.00;38.00;;;;;;;;5246664;28;9593;-80
2022/03/02 04:19:33;;;;;;;;;67.00;47.40;;;;;;;;5235701;28;8782;-78
2022/03/02 04:22:23;;;;;;;;;45.40;42.40;;;;;;;;5254356;28;8788;-80
2022/03/02 04:24:54;;;;;;;;;45.40;36.80;;;;;;;;5236649;28;8918;-80
2022/03/02 04:27:25;;;;;;;;;62.80;52.40;;;;;;;;5247343;28;9511;-77
2022/03/02 04:29:56;;;;;;;;;38.40;38.40;;;;;;;;5214014;28;9563;-77
2022/03/02 04:32:28;;;;;;;;;18.60;18.40;;;;;;;;5213951;28;8773;-78
2022/03/02 04:34:59;;;;;;;;;49.80;46.40;;;;;;;;5214290;28;8800;-78
2022/03/02 04:37:48;;;;;;;;;38.40;38.20;;;;;;;;5253169;28;8935;-77
2022/03/02 04:40:20;;;;;;;;;46.20;38.80;;;;;;;;5231237;28;8793;-78
2022/03/02 04:42:51;;;;;;;;;34.80;30.20;;;;;;;;5194749;28;8772;-78
2022/03/02 04:45:27;;;;;;;;;21.80;21.20;;;;;;;;5193173;28;8803;-78
2022/03/02 04:47:59;;;;;;;;;29.20;28.40;;;;;;;;5209327;28;8807;-76
2022/03/02 04:50:30;;;;;;;;;40.40;31.40;;;;;;;;5193821;28;9648;-76
2022/03/02 04:53:02;;;;;;;;;39.60;33.20;;;;;;;;5209632;28;8844;-75
2022/03/02 04:55:32;;;;;;;;;37.80;35.20;;;;;;;;5193134;28;8787;-76
2022/03/02 04:58:04;;;;;;;;;29.00;28.20;;;;;;;;5236522;28;8772;-75
2022/03/02 05:00:35;;;;;;;;;37.40;35.20;;;;;;;;5230200;28;8858;-79
2022/03/02 05:03:07;;;;;;;;;30.00;29.20;;;;;;;;5229904;28;8796;-74
2022/03/02 05:05:38;;;;;;;;;40.00;37.20;;;;;;;;5246887;28;8862;-72
2022/03/02 05:08:09;;;;;;;;;27.00;22.80;;;;;;;;5229495;28;9705;-74
2022/03/02 05:10:41;;;;;;;;;25.80;25.40;;;;;;;;5241182;28;8809;-73
2022/03/02 05:13:12;;;;;;;;;30.40;27.80;;;;;;;;5228098;28;8780;-73
2022/03/02 05:15:43;;;;;;;;;33.80;33.60;;;;;;;;5195051;28;8796;-74
2022/03/02 05:18:14;;;;;;;;;39.20;37.60;;;;;;;;5227883;28;8803;-74
2022/03/02 05:20:45;;;;;;;;;41.00;33.20;;;;;;;;5227950;28;8797;-74
2022/03/02 05:23:16;;;;;;;;;31.20;24.40;;;;;;;;5227854;28;8800;-74
2022/03/02 05:25:47;;;;;;;;;48.50;39.75;;;;;;;;5226290;28;8874;-73
2022/03/02 05:28:18;;;;;;;;;35.40;34.20;;;;;;;;5227736;28;10390;-73
2022/03/02 05:30:49;;;;;;;;;29.00;26.60;;;;;;;;5211043;28;8823;-72
2022/03/02 05:33:39;;;;;;;;;31.20;29.80;;;;;;;;5227307;28;9593;-71
2022/03/02 05:36:10;;;;;;;;;35.40;34.40;;;;;;;;5230212;28;8810;-72
2022/03/02 05:38:41;;;;;;;;;30.20;27.80;;;;;;;;5190780;28;8799;-72
2022/03/02 05:41:12;;;;;;;;;40.80;39.20;;;;;;;;5206847;28;8794;-72
2022/03/02 05:43:43;;;;;;;;;36.75;33.25;;;;;;;;5206854;28;8809;-72
2022/03/02 05:46:15;;;;;;;;;30.60;29.20;;;;;;;;5237217;28;8839;-72
2022/03/02 05:48:45;;;;;;;;;22.20;22.20;;;;;;;;5223337;28;8849;-71
2022/03/02 05:51:17;;;;;;;;;30.00;29.60;;;;;;;;5190109;28;8779;-71
2022/03/02 05:53:48;;;;;;;;;27.20;25.40;;;;;;;;5211229;28;8794;-71
2022/03/02 05:56:19;;;;;;;;;33.60;30.80;;;;;;;;5249854;28;8798;-73
2022/03/02 05:58:51;;;;;;;;;24.20;23.80;;;;;;;;5249720;28;8778;-73
2022/03/02 06:01:41;;;;;;;;;27.40;24.80;;;;;;;;5249726;28;8779;-72
2022/03/02 06:04:12;;;;;;;;;23.00;21.60;;;;;;;;5232957;28;8857;-71
2022/03/02 06:06:44;;;;;;;;;27.20;24.00;;;;;;;;5249683;28;8802;-72
2022/03/02 06:09:15;;;;;;;;;22.20;22.00;;;;;;;;5232662;28;8787;-73
2022/03/02 06:11:46;;;;;;;;;23.00;23.00;;;;;;;;5232389;28;8770;-73
2022/03/02 06:14:17;;;;;;;;;21.40;21.40;;;;;;;;5212354;28;8881;-73
2022/03/02 06:16:48;;;;;;;;;19.00;18.00;;;;;;;;5212029;28;8931;-72
2022/03/02 06:19:19;;;;;;;;;24.40;21.40;;;;;;;;5261687;28;9006;-73
2022/03/02 06:21:52;;;;;;;;;38.20;33.80;;;;;;;;5262194;28;8785;-73
2022/03/02 06:24:42;;;;;;;;;45.20;38.00;;;;;;;;5228732;28;8772;-73
2022/03/02 06:27:13;;;;;;;;;28.20;27.20;;;;;;;;5228595;28;8776;-73
2022/03/02 06:30:03;;;;;;;;;34.20;32.20;;;;;;;;5228295;28;8832;-73
2022/03/02 06:32:34;;;;;;;;;37.40;36.40;;;;;;;;5244391;28;8777;-73
2022/03/02 06:35:06;;;;;;;;;24.00;24.00;;;;;;;;5246169;28;8785;-73
2022/03/02 06:37:37;;;;;;;;;22.40;22.40;;;;;;;;5211791;28;8802;-73
2022/03/02 06:40:10;;;;;;;;;27.80;25.80;;;;;;;;5228343;28;8812;-73
2022/03/02 06:42:50;;;;;;;;;27.00;27.00;;;;;;;;5244498;28;8789;-72
2022/03/02 06:45:24;;;;;;;;;17.80;12.20;;;;;;;;5228424;28;8850;-73
2022/03/02 06:48:17;;;;;;;;;20.00;16.20;;;;;;;;5230458;28;8799;-71
2022/03/02 06:51:07;;;;;;;;;18.40;18.20;;;;;;;;5230909;28;8780;-71
2022/03/02 06:53:42;;;;;;;;;45.40;42.60;;;;;;;;5211976;28;8808;-72
2022/03/02 06:56:16;;;;;;;;;25.20;22.80;;;;;;;;5228147;28;8777;-73
2022/03/02 06:59:11;;;;;;;;;27.20;27.20;;;;;;;;5231026;28;8765;-71
2022/03/02 07:01:43;;;;;;;;;27.60;26.20;;;;;;;;5229339;28;8807;-72
2022/03/02 07:04:15;;;;;;;;;26.00;26.00;;;;;;;;5207850;28;8771;-72
2022/03/02 07:07:04;;;;;;;;;20.40;20.40;;;;;;;;5225944;28;8899;-71
2022/03/02 07:09:35;;;;;;;;;22.20;19.00;;;;;;;;5191580;28;8827;-71
2022/03/02 07:12:07;;;;;;;;;20.80;20.80;;;;;;;;5208208;28;8787;-72
2022/03/02 07:14:40;;;;;;;;;22.00;22.00;;;;;;;;5191618;28;8809;-72
2022/03/02 07:17:11;;;;;;;;;20.20;20.20;;;;;;;;5207873;28;8778;-72
2022/03/02 07:19:43;;;;;;;;;14.80;14.80;;;;;;;;5212222;28;8809;-72
2022/03/02 07:22:16;;;;;;;;;21.40;20.00;;;;;;;;5227858;28;9448;-72
2022/03/02 07:24:52;;;;;;;;;12.60;12.20;;;;;;;;5261958;28;8850;-72
2022/03/02 07:27:23;;;;;;;;;26.40;25.60;;;;;;;;5245786;28;8801;-73
2022/03/02 07:29:55;;;;;;;;;15.40;15.40;;;;;;;;5229055;28;8873;-72
2022/03/02 07:32:31;;;;;;;;;34.60;32.80;;;;;;;;5217066;28;8795;-72
2022/03/02 07:35:04;;;;;;;;;20.20;20.20;;;;;;;;5195203;28;8775;-72
2022/03/02 07:37:55;;;;;;;;;36.60;31.80;;;;;;;;5200199;28;8770;-72
2022/03/02 07:40:26;;;;;;;;;31.60;31.60;;;;;;;;5194577;28;8806;-73
2022/03/02 07:42:58;;;;;;;;;33.00;26.60;;;;;;;;5211109;28;8794;-73
2022/03/02 07:45:29;;;;;;;;;23.60;20.60;;;;;;;;5228568;28;8811;-72
2022/03/02 07:48:00;;;;;;;;;17.00;16.20;;;;;;;;5210894;28;8786;-73
2022/03/02 07:50:31;;;;;;;;;16.40;16.40;;;;;;;;5210614;28;8825;-72
2022/03/02 07:53:22;;;;;;;;;21.60;21.60;;;;;;;;5229110;28;8771;-72
2022/03/02 07:56:13;;;;;;;;;20.00;19.60;;;;;;;;5211831;28;8783;-72
2022/03/02 07:58:45;;;;;;;;;30.00;27.20;;;;;;;;5228217;28;9517;-72
2022/03/02 08:01:17;;;;;;;;;23.40;22.40;;;;;;;;5210987;28;8766;-72
2022/03/02 08:03:48;;;;;;;;;30.20;25.20;;;;;;;;5228575;28;8791;-72
2022/03/02 08:06:20;;;;;;;;;20.00;20.00;;;;;;;;5229132;28;8815;-73
2022/03/02 08:08:51;;;;;;;;;18.80;18.80;;;;;;;;5211122;28;8941;-73
2022/03/02 08:11:21;;;;;;;;;31.00;31.00;;;;;;;;5211034;28;8929;-72
2022/03/02 08:13:52;;;;;;;;;24.40;23.40;;;;;;;;5228669;28;8787;-73
2022/03/02 08:16:23;;;;;;;;;13.50;13.50;;;;;;;;5210694;28;8794;-73
2022/03/02 08:18:55;;;;;;;;;16.80;15.20;;;;;;;;5226521;28;8785;-72
2022/03/02 08:21:46;;;;;;;;;20.80;20.80;;;;;;;;5249767;28;8784;-72
2022/03/02 08:24:18;;;;;;;;;34.20;33.40;;;;;;;;5229511;28;9539;-73
2022/03/02 08:26:52;;;;;;;;;29.00;29.00;;;;;;;;5229490;28;9666;-73
2022/03/02 08:29:25;;;;;;;;;38.00;34.20;;;;;;;;5230119;28;8816;-73
2022/03/02 08:32:15;;;;;;;;;15.00;15.00;;;;;;;;5216044;28;8800;-74
2022/03/02 08:34:46;;;;;;;;;13.20;12.20;;;;;;;;5245630;28;8792;-74
2022/03/02 08:37:18;;;;;;;;;15.60;15.60;;;;;;;;5187949;28;8807;-73
2022/03/02 08:39:49;;;;;;;;;11.00;11.00;;;;;;;;5194124;28;8952;-73
2022/03/02 08:42:20;;;;;;;;;12.80;12.80;;;;;;;;5226731;28;8825;-73
2022/03/02 08:44:54;;;;;;;;;11.00;11.00;;;;;;;;5209190;28;8786;-74
2022/03/02 08:47:25;;;;;;;;;23.20;22.20;;;;;;;;5226083;28;11561;-74
2022/03/02 08:49:56;;;;;;;;;13.80;13.40;;;;;;;;5208759;28;8853;-71
2022/03/02 08:52:29;;;;;;;;;23.60;23.40;;;;;;;;5224993;28;8793;-72
2022/03/02 08:55:01;;;;;;;;;32.20;31.00;;;;;;;;5263095;28;8800;-74
2022/03/02 08:57:34;;;;;;;;;37.00;35.60;;;;;;;;5217322;28;8821;-73
2022/03/02 09:00:07;;;;;;;;;18.60;18.60;;;;;;;;5226164;28;8901;-73
2022/03/02 09:02:39;;;;;;;;;13.20;13.20;;;;;;;;5209852;28;8799;-73
2022/03/02 09:05:11;;;;;;;;;27.00;26.60;;;;;;;;5208653;28;8859;-73
2022/03/02 09:08:00;;;;;;;;;20.20;19.40;;;;;;;;5241764;28;8799;-75
2022/03/02 09:10:32;;;;;;;;;25.60;22.80;;;;;;;;5194896;28;8904;-73
2022/03/02 09:13:03;;;;;;;;;13.00;12.80;;;;;;;;5217618;28;8867;-74
2022/03/02 09:15:37;;;;;;;;;16.80;16.40;;;;;;;;5245608;28;8769;-72
2022/03/02 09:18:08;;;;;;;;;14.00;14.00;;;;;;;;5232022;28;8822;-72
2022/03/02 09:20:40;;;;;;;;;18.60;17.00;;;;;;;;5249342;28;8907;-72
2022/03/02 09:23:12;;;;;;;;;15.00;14.80;;;;;;;;5249132;28;8776;-72
2022/03/02 09:26:04;;;;;;;;;9.40;9.40;;;;;;;;5249624;28;8916;-74
2022/03/02 09:28:37;;;;;;;;;11.80;10.80;;;;;;;;5232685;28;8926;-74
2022/03/02 09:31:26;;;;;;;;;14.60;14.60;;;;;;;;5249835;28;8792;-74
2022/03/02 09:33:58;;;;;;;;;35.40;34.80;;;;;;;;5249915;28;8777;-74
2022/03/02 09:36:33;;;;;;;;;26.20;26.20;;;;;;;;5212178;28;8880;-74
2022/03/02 09:39:08;;;;;;;;;15.00;14.80;;;;;;;;5229624;28;8774;-74
2022/03/02 09:41:49;;;;;;;;;10.00;10.00;;;;;;;;5229458;28;8833;-74
2022/03/02 09:44:21;;;;;;;;;17.80;17.80;;;;;;;;5229703;28;8763;-74
2022/03/02 09:46:56;;;;;;;;;21.40;21.40;;;;;;;;5195384;28;8767;-76
2022/03/02 09:49:30;;;;;;;;;19.60;19.60;;;;;;;;5230513;28;8938;-75
2022/03/02 09:52:10;;;;;;;;;13.20;13.00;;;;;;;;5230522;28;8763;-76
2022/03/02 09:54:44;;;;;;;;;12.40;12.40;;;;;;;;5243287;28;9649;-75
2022/03/02 09:57:17;;;;;;;;;9.00;9.00;;;;;;;;5218625;28;8772;-75
2022/03/02 09:59:49;;;;;;;;;14.20;14.00;;;;;;;;5255663;28;8776;-74
2022/03/02 10:02:29;;;;;;;;;19.80;19.80;;;;;;;;5237750;28;8807;-75
2022/03/02 10:05:05;;;;;;;;;12.60;10.60;;;;;;;;5256650;28;8916;-74
2022/03/02 10:07:39;;;;;;;;;12.60;10.60;;;;;;;;5239240;28;8789;-74
2022/03/02 10:10:33;;;;;;;;;19.20;18.40;;;;;;;;5242275;28;8796;-74
2022/03/02 10:13:08;;;;;;;;;18.40;18.40;;;;;;;;5211293;28;8841;-75
2022/03/02 10:15:39;;;;;;;;;48.00;42.20;;;;;;;;5219910;28;8941;-75
2022/03/02 10:18:12;;;;;;;;;16.00;15.20;;;;;;;;5225292;28;8889;-74
2022/03/02 10:20:49;;;;;;;;;17.80;15.80;;;;;;;;5278025;28;8829;-75
2022/03/02 10:23:34;;;;;;;;;12.60;12.60;;;;;;;;5241427;28;8782;-74
2022/03/02 10:26:08;;;;;;;;;26.80;26.40;;;;;;;;5275458;28;8782;-74
2022/03/02 10:29:17;;;;;;;;;67.60;54.00;;;;;;;;5275747;28;8786;-75
2022/03/02 10:31:48;;;;;;;;;44.60;41.00;;;;;;;;5252380;28;8857;-75
2022/03/02 10:34:25;;;;;;;;;20.50;20.50;;;;;;;;5207576;28;8805;-75
2022/03/02 10:37:16;;;;;;;;;18.80;18.20;;;;;;;;5273703;28;8790;-75
2022/03/02 10:39:54;;;;;;;;;15.00;14.60;;;;;;;;5240289;28;8808;-76
2022/03/02 10:42:45;;;;;;;;;50.80;44.00;;;;;;;;5241748;28;8811;-74
2022/03/02 10:45:21;;;;;;;;;28.60;25.00;;;;;;;;5240759;28;8858;-74
2022/03/02 10:47:56;;;;;;;;;18.00;18.00;;;;;;;;5274887;28;9523;-74
2022/03/02 10:50:32;;;;;;;;;18.00;18.00;;;;;;;;5257191;28;8816;-76
2022/03/02 10:53:04;;;;;;;;;24.40;24.00;;;;;;;;5220623;28;8774;-75
2022/03/02 10:55:35;;;;;;;;;19.40;17.40;;;;;;;;5219349;28;8763;-73
2022/03/02 10:58:06;;;;;;;;;29.75;29.75;;;;;;;;5216997;28;8924;-74
2022/03/02 11:00:37;;;;;;;;;15.75;15.75;;;;;;;;5235340;28;12261;-74
2022/03/02 11:03:08;;;;;;;;;12.25;10.00;;;;;;;;5234017;28;11457;-74
2022/03/02 11:05:39;;;;;;;;;12.00;12.00;;;;;;;;5238917;28;11476;-74
2022/03/02 11:08:10;;;;;;;;;16.20;16.20;;;;;;;;5221911;28;9580;-75
2022/03/02 11:10:42;;;;;;;;;27.75;27.75;;;;;;;;5239847;28;8823;-75
2022/03/02 11:13:13;;;;;;;;;18.40;16.40;;;;;;;;5204874;28;8775;-75
2022/03/02 11:15:46;;;;;;;;;14.20;12.60;;;;;;;;5204646;28;8775;-76
2022/03/02 11:18:19;;;;;;;;;10.80;10.60;;;;;;;;5204722;28;8782;-76
2022/03/02 11:21:10;;;;;;;;;18.00;18.00;;;;;;;;5272937;28;8899;-73
2022/03/02 11:23:42;;;;;;;;;29.80;28.00;;;;;;;;5243169;28;8782;-74
2022/03/02 11:26:16;;;;;;;;;15.40;14.80;;;;;;;;5260585;28;9524;-74
2022/03/02 11:28:48;;;;;;;;;14.00;14.00;;;;;;;;5222848;28;8817;-74
2022/03/02 11:31:21;;;;;;;;;13.00;13.00;;;;;;;;5239710;28;8804;-75
2022/03/02 11:34:09;;;;;;;;;19.80;19.80;;;;;;;;5239258;28;8789;-77
2022/03/02 11:36:55;;;;;;;;;25.80;25.20;;;;;;;;5255042;28;8830;-75
2022/03/02 11:39:27;;;;;;;;;43.20;41.00;;;;;;;;5212326;28;8862;-74
2022/03/02 11:42:00;;;;;;;;;34.40;34.40;;;;;;;;5251089;28;8781;-74
2022/03/02 11:44:31;;;;;;;;;25.60;25.40;;;;;;;;5222072;28;8984;-74
2022/03/02 11:47:08;;;;;;;;;26.80;26.60;;;;;;;;5241287;28;8814;-74
2022/03/02 11:49:44;;;;;;;;;24.80;24.20;;;;;;;;5256618;28;8810;-73
2022/03/02 11:52:22;;;;;;;;;40.80;39.00;;;;;;;;5224585;28;8785;-74
2022/03/02 11:55:07;;;;;;;;;58.20;46.80;;;;;;;;5234281;28;8843;-74
2022/03/02 11:57:42;;;;;;;;;60.40;51.00;;;;;;;;5219425;28;8793;-74
2022/03/02 12:00:16;;;;;;;;;107.60;85.20;;;;;;;;5236078;28;8811;-74
2022/03/02 12:02:47;;;;;;;;;78.60;58.60;;;;;;;;5234746;28;8787;-74
2022/03/02 12:05:20;;;;;;;;;36.25;35.75;;;;;;;;5233569;28;8880;-75
2022/03/02 12:08:00;;;;;;;;;39.20;36.40;;;;;;;;5232811;28;8800;-75
2022/03/02 12:10:35;;;;;;;;;82.60;67.20;;;;;;;;5251223;28;8813;-75
2022/03/02 12:13:24;;;;;;;;;92.75;73.00;;;;;;;;5232898;28;8781;-75
2022/03/02 12:15:55;;;;;;;;;107.67;96.00;;;;;;;;5232645;28;8773;-75
2022/03/02 12:18:26;;;;;;;;;97.50;89.75;;;;;;;;5228259;28;9595;-75
2022/03/02 12:20:57;;;;;;;;;85.75;67.75;;;;;;;;5215811;28;8761;-74
2022/03/02 12:23:33;;;;;;;;;67.00;53.80;;;;;;;;5249614;28;10964;-74
2022/03/02 12:26:08;;;;;;;;;66.00;50.40;;;;;;;;5230923;28;8784;-74
2022/03/02 12:28:53;;;;;;;;;71.60;58.60;;;;;;;;5213601;28;8784;-73
2022/03/02 12:31:46;;;;;;;;;72.80;59.60;;;;;;;;5248547;28;8761;-77
2022/03/02 12:34:17;;;;;;;;;72.40;57.40;;;;;;;;5216986;28;8803;-74
2022/03/02 12:36:49;;;;;;;;;67.50;57.00;;;;;;;;5210278;28;8845;-75
2022/03/02 12:39:20;;;;;;;;;77.40;62.00;;;;;;;;5193638;28;11502;-74
2022/03/02 12:41:51;;;;;;;;;79.00;63.80;;;;;;;;5209817;28;8830;-74
2022/03/02 12:44:22;;;;;;;;;93.00;71.75;;;;;;;;5227715;28;8751;-74
2022/03/02 12:47:00;;;;;;;;;110.33;101.00;;;;;;;;5193341;28;9501;-73
2022/03/02 12:49:32;;;;;;;;;135.00;116.00;;;;;;;;5205616;28;8993;-74
2022/03/02 12:52:04;;;;;;;;;142.67;113.67;;;;;;;;5206970;28;9595;-74
2022/03/02 12:54:36;;;;;;;;;114.75;103.00;;;;;;;;5205936;28;9127;-74
2022/03/02 12:57:08;;;;;;;;;107.00;87.50;;;;;;;;5205388;28;8799;-74
2022/03/02 12:59:40;;;;;;;;;106.50;90.25;;;;;;;;5207000;28;8796;-74
2022/03/02 13:02:30;;;;;;;;;73.00;59.60;;;;;;;;5205507;28;8792;-74
2022/03/02 13:05:07;;;;;;;;;61.20;50.00;;;;;;;;5206724;28;8880;-73
2022/03/02 13:07:40;;;;;;;;;41.40;39.00;;;;;;;;5205773;28;8942;-75
2022/03/02 13:10:29;;;;;;;;;32.80;31.40;;;;;;;;5206715;28;8820;-75
2022/03/02 13:13:01;;;;;;;;;37.75;37.50;;;;;;;;5205124;28;8858;-75
2022/03/02 13:15:32;;;;;;;;;55.60;46.20;;;;;;;;5205264;28;9761;-75
2022/03/02 13:18:09;;;;;;;;;76.80;61.40;;;;;;;;5188460;28;8859;-75
2022/03/02 13:20:42;;;;;;;;;61.60;51.40;;;;;;;;5188739;28;8808;-76
2022/03/02 13:23:14;;;;;;;;;49.40;41.40;;;;;;;;5188823;28;8807;-74
2022/03/02 13:26:00;;;;;;;;;33.40;32.00;;;;;;;;5206327;28;8804;-74
2022/03/02 13:28:32;;;;;;;;;25.80;25.80;;;;;;;;5205190;28;8846;-74
2022/03/02 13:31:09;;;;;;;;;39.20;36.40;;;;;;;;5206582;28;8854;-76
2022/03/02 13:33:56;;;;;;;;;26.60;23.40;;;;;;;;5205068;28;9605;-74
2022/03/02 13:36:33;;;;;;;;;30.40;29.20;;;;;;;;5188022;28;8942;-74
2022/03/02 13:39:26;;;;;;;;;17.20;17.20;;;;;;;;5205707;28;8861;-74
2022/03/02 13:41:58;;;;;;;;;22.00;21.60;;;;;;;;5205498;28;8785;-74
2022/03/02 13:44:32;;;;;;;;;22.20;22.20;;;;;;;;5204538;28;8796;-73
2022/03/02 13:47:26;;;;;;;;;19.20;19.20;;;;;;;;5204746;28;8780;-74
2022/03/02 13:49:58;;;;;;;;;14.40;14.00;;;;;;;;5188042;28;8850;-75
2022/03/02 13:52:29;;;;;;;;;18.00;18.00;;;;;;;;5204561;28;9553;-76
2022/03/02 13:55:12;;;;;;;;;22.60;22.00;;;;;;;;5199776;28;8848;-75
2022/03/02 13:58:18;;;;;;;;;94.20;73.00;;;;;;;;5225097;28;8911;-78
2022/03/02 14:00:49;;;;;;;;;161.75;122.00;;;;;;;;5197866;28;9547;-76
2022/03/02 14:03:29;;;;;;;;;108.25;92.00;;;;;;;;5226567;28;8907;-77
2022/03/02 14:06:01;;;;;;;;;148.67;115.00;;;;;;;;5208860;28;8809;-78
2022/03/02 14:08:46;;;;;;;;;192.50;146.00;;;;;;;;5208254;28;9142;-79
2022/03/02 14:11:26;;;;;;;;;109.50;86.75;;;;;;;;5227192;28;10503;-79
2022/03/02 14:13:58;;;;;;;;;77.60;61.00;;;;;;;;5210384;28;8770;-79
2022/03/02 14:16:28;;;;;;;;;61.40;51.80;;;;;;;;5197847;28;8923;-76
2022/03/02 14:19:07;;;;;;;;;57.20;47.80;;;;;;;;5214989;28;8932;-76
2022/03/02 14:21:50;;;;;;;;;44.40;40.20;;;;;;;;5199811;28;8794;-77
2022/03/02 14:24:22;;;;;;;;;65.20;54.20;;;;;;;;5230460;28;8789;-77
2022/03/02 14:27:19;;;;;;;;;44.80;40.00;;;;;;;;5224601;28;8810;-78
2022/03/02 14:29:54;;;;;;;;;57.60;45.80;;;;;;;;5224772;28;8818;-78
2022/03/02 14:32:31;;;;;;;;;43.80;39.80;;;;;;;;5207961;28;8809;-78
2022/03/02 14:35:04;;;;;;;;;41.20;39.80;;;;;;;;5206543;28;8836;-76
2022/03/02 14:37:43;;;;;;;;;113.75;79.50;;;;;;;;5206798;28;8782;-75
2022/03/02 14:40:22;;;;;;;;;69.80;53.80;;;;;;;;5222499;28;8900;-76
2022/03/02 14:42:57;;;;;;;;;37.00;36.00;;;;;;;;5231456;28;8779;-75
2022/03/02 14:45:47;;;;;;;;;35.80;31.20;;;;;;;;5223633;28;8804;-75
2022/03/02 14:48:36;;;;;;;;;30.40;28.80;;;;;;;;5211899;28;8828;-74
2022/03/02 14:51:07;;;;;;;;;31.80;30.00;;;;;;;;5223180;28;8819;-74
2022/03/02 14:53:39;;;;;;;;;24.25;23.25;;;;;;;;5222898;28;8797;-74
2022/03/02 14:56:13;;;;;;;;;25.60;24.40;;;;;;;;5224884;28;8789;-74
2022/03/02 14:58:45;;;;;;;;;18.20;18.00;;;;;;;;5190782;28;8808;-74
2022/03/02 15:01:17;;;;;;;;;17.20;16.80;;;;;;;;5205479;28;8802;-74
2022/03/02 15:04:07;;;;;;;;;20.20;19.40;;;;;;;;5221183;28;8922;-75
2022/03/02 15:06:38;;;;;;;;;58.60;51.00;;;;;;;;5225179;28;8816;-74
2022/03/02 15:09:10;;;;;;;;;25.50;24.50;;;;;;;;5225036;28;8810;-74
2022/03/02 15:11:45;;;;;;;;;31.80;30.60;;;;;;;;5206875;28;11516;-73
2022/03/02 15:17:09;;;;;;;;;25.60;25.40;;;;;;;;5224873;28;8774;-74
2022/03/02 15:20:00;;;;;;;;;33.20;30.40;;;;;;;;5222889;28;8840;-74